Terminal Aerodrome Forecast
Issued by NWS Sterling, VA

Current Version | Previous Version | Graphics & Text | Print | Product List | Glossary On
Versions: 1 2 3 4 5 6 7 8 9 10 11 12 13 14 15 16 17 18 19 20 21 22
847
FTUS41 KLWX 171120
TAFMRB
TAF
KMRB 171120Z 1712/1812 00000KT 2SM -SHRA BR OVC003
     FM171800 15006KT 6SM -SHRA BR OVC003
     FM172100 17007KT P6SM BKN015
     FM180300 23005KT P6SM BKN020
     FM180600 26005KT 6SM BR BKN070=

USA.gov is the U.S. government's official web portal to all federal, state and local government web resources and services.